Time;durP1;ratioP1;P1;durP2;ratioP2;P2;SDS_P1;SDS_P2;PMS_P1;PMS_P2;Temp;Humidity;BMP_temperature;BMP_pressure;BME280_temperature;BME280_humidity;BME280_pressure;Samples;Min_cycle;Max_cycle;Signal;HPM_P1;HPM_P2
2023/03/27 00:01:36;;;;;;;1.60;1.15;;;12.70;83.60;;;;;;10785925;33;20051;-76
2023/03/27 00:07:40;;;;;;;2.10;1.30;;;12.70;83.60;;;;;;10789414;33;20043;-76
2023/03/27 00:13:43;;;;;;;2.05;1.85;;;12.80;83.50;;;;;;10770749;33;20020;-75
2023/03/27 00:19:45;;;;;;;3.15;1.83;;;12.80;83.60;;;;;;10788578;33;20050;-76
2023/03/27 00:25:50;;;;;;;4.93;2.45;;;12.80;83.70;;;;;;10774654;33;20044;-76
2023/03/27 00:31:52;;;;;;;1.98;1.33;;;12.70;83.60;;;;;;10788190;33;20024;-76
2023/03/27 00:37:54;;;;;;;1.95;1.50;;;12.50;84.00;;;;;;10787975;33;20013;-76
2023/03/27 00:43:57;;;;;;;4.53;3.00;;;12.60;83.90;;;;;;10785860;33;20200;-72
2023/03/27 00:50:05;;;;;;;1.80;1.70;;;12.40;83.50;;;;;;10790125;33;20048;-72
2023/03/27 00:56:09;;;;;;;1.37;1.17;;;12.30;83.90;;;;;;10792775;33;20064;-72
2023/03/27 01:02:12;;;;;;;1.27;1.10;;;12.30;84.00;;;;;;10764380;33;20055;-72
2023/03/27 01:08:15;;;;;;;1.48;1.10;;;12.50;84.00;;;;;;10794446;33;20043;-72
2023/03/27 01:14:45;;;;;;;1.90;1.70;;;12.50;83.80;;;;;;10794813;33;20075;-72
2023/03/27 01:20:59;;;;;;;1.37;0.93;;;12.40;83.80;;;;;;10792868;33;20060;-72
2023/03/27 01:27:11;;;;;;;3.58;1.48;;;12.40;83.80;;;;;;10789888;33;20039;-72
2023/03/27 01:33:56;;;;;;;0.82;0.82;;;12.30;83.70;;;;;;10793836;33;20019;-72
2023/03/27 01:40:18;;;;;;;2.62;1.50;;;12.20;83.70;;;;;;10792246;33;20043;-72
2023/03/27 01:46:31;;;;;;;1.30;1.20;;;12.20;83.70;;;;;;10792125;33;20051;-72
2023/03/27 01:52:39;;;;;;;0.82;0.70;;;12.40;83.70;;;;;;10778910;33;20042;-72
2023/03/27 01:58:45;;;;;;;2.33;1.52;;;12.30;83.50;;;;;;10779673;33;20393;-72
2023/03/27 02:04:53;;;;;;;2.55;1.62;;;12.20;83.60;;;;;;10791964;33;20013;-72
2023/03/27 02:10:58;;;;;;;3.00;1.45;;;12.30;83.80;;;;;;10793152;33;20064;-72
2023/03/27 02:17:08;;;;;;;1.45;1.15;;;12.30;83.40;;;;;;10791304;33;20016;-72
2023/03/27 02:23:11;;;;;;;1.08;0.90;;;12.30;83.80;;;;;;10792178;33;20046;-72
2023/03/27 02:29:57;;;;;;;1.58;1.02;;;12.40;83.60;;;;;;10791597;33;20035;-72
2023/03/27 02:36:05;;;;;;;2.15;1.87;;;12.50;83.60;;;;;;10792415;32;20349;-72
2023/03/27 02:42:19;;;;;;;2.22;2.00;;;12.70;83.60;;;;;;10790626;33;20055;-72
2023/03/27 02:48:39;;;;;;;3.87;2.08;;;12.80;83.60;;;;;;10784982;33;20032;-72
2023/03/27 02:55:04;;;;;;;5.00;2.40;;;12.90;83.40;;;;;;10791562;33;20024;-72
2023/03/27 03:01:08;;;;;;;4.65;2.65;;;12.80;83.00;;;;;;10778785;33;20028;-72
2023/03/27 03:07:14;;;;;;;4.10;2.30;;;12.30;83.40;;;;;;10790022;33;20456;-72
2023/03/27 03:13:17;;;;;;;4.70;2.75;;;12.20;83.90;;;;;;10790591;33;20408;-72
2023/03/27 03:19:20;;;;;;;4.75;2.60;;;12.10;84.00;;;;;;10789489;33;20024;-72
2023/03/27 03:25:24;;;;;;;6.80;3.83;;;12.10;84.10;;;;;;10788308;33;20029;-72
2023/03/27 03:31:26;;;;;;;4.80;2.95;;;12.10;84.00;;;;;;10777910;33;20028;-72
2023/03/27 03:37:37;;;;;;;2.87;1.85;;;12.10;84.00;;;;;;10790265;33;20055;-72
2023/03/27 03:43:40;;;;;;;5.50;3.50;;;12.10;83.90;;;;;;10790030;33;20063;-72
2023/03/27 03:49:42;;;;;;;4.10;2.95;;;12.00;84.10;;;;;;10775317;33;20363;-72
2023/03/27 03:55:45;;;;;;;5.65;3.25;;;11.90;84.20;;;;;;10776677;33;20032;-72
2023/03/27 04:01:47;;;;;;;5.35;3.08;;;12.00;84.30;;;;;;10788363;33;20029;-72
2023/03/27 04:07:49;;;;;;;3.47;1.95;;;12.10;84.10;;;;;;10788835;33;20058;-72
2023/03/27 04:13:52;;;;;;;5.70;3.70;;;12.10;84.00;;;;;;10788068;33;20020;-72
2023/03/27 04:19:56;;;;;;;8.30;4.60;;;12.00;84.20;;;;;;10785450;33;20032;-72
2023/03/27 04:25:59;;;;;;;10.73;9.00;;;11.90;84.30;;;;;;10784017;33;20426;-72
2023/03/27 04:32:04;;;;;;;13.38;10.52;;;12.00;84.20;;;;;;10775971;33;20020;-72
2023/03/27 04:38:09;;;;;;;10.60;8.75;;;11.90;84.10;;;;;;10788126;33;20046;-72
2023/03/27 04:44:11;;;;;;;11.12;7.55;;;11.90;84.10;;;;;;10788428;33;20032;-72
2023/03/27 04:50:15;;;;;;;17.50;8.40;;;11.70;84.10;;;;;;10787630;33;20050;-72
2023/03/27 04:56:17;;;;;;;10.95;6.25;;;11.70;84.20;;;;;;10787653;33;20020;-72
2023/03/27 05:02:20;;;;;;;7.32;4.75;;;11.60;84.20;;;;;;10788055;33;20020;-72
2023/03/27 05:08:22;;;;;;;14.02;7.85;;;11.60;84.30;;;;;;10771762;33;20054;-72
2023/03/27 05:14:24;;;;;;;12.52;9.15;;;11.80;84.30;;;;;;10773705;33;20047;-72
2023/03/27 05:20:27;;;;;;;12.15;8.13;;;11.80;84.20;;;;;;10787610;33;20036;-72
2023/03/27 05:26:31;;;;;;;14.40;11.02;;;11.70;83.80;;;;;;10786908;33;20043;-72
2023/03/27 05:32:34;;;;;;;16.60;11.82;;;11.50;84.20;;;;;;10787451;33;20051;-72
2023/03/27 05:38:38;;;;;;;16.40;11.85;;;11.70;84.50;;;;;;10790619;33;20025;-72
2023/03/27 05:44:42;;;;;;;10.63;7.45;;;11.70;84.10;;;;;;10792179;33;20059;-72
2023/03/27 05:50:44;;;;;;;11.25;6.78;;;11.70;84.40;;;;;;10792464;33;20021;-72
2023/03/27 05:57:00;;;;;;;17.95;12.35;;;11.70;84.10;;;;;;10792383;33;20046;-72
2023/03/27 06:03:03;;;;;;;12.68;7.72;;;11.50;84.00;;;;;;10791634;33;20028;-72
2023/03/27 06:09:11;;;;;;;6.60;4.68;;;11.40;84.30;;;;;;10786536;32;20091;-72
2023/03/27 06:15:16;;;;;;;19.95;11.73;;;11.60;84.60;;;;;;10771770;32;20036;-72
2023/03/27 06:21:20;;;;;;;16.87;11.15;;;11.60;84.10;;;;;;10791084;33;20066;-72
2023/03/27 06:27:23;;;;;;;15.73;10.20;;;11.40;83.80;;;;;;10836904;32;20036;-72
2023/03/27 06:33:26;;;;;;;13.25;7.93;;;11.40;84.20;;;;;;10791530;33;20032;-72
2023/03/27 06:39:29;;;;;;;16.92;12.37;;;11.30;84.20;;;;;;10788159;33;20055;-72
2023/03/27 06:45:41;;;;;;;14.75;10.02;;;11.40;84.30;;;;;;10790464;33;20024;-72
2023/03/27 06:51:45;;;;;;;14.38;10.23;;;11.50;84.40;;;;;;10787567;33;20390;-72
2023/03/27 06:57:53;;;;;;;9.05;5.82;;;11.50;84.50;;;;;;10788042;33;20037;-72
2023/03/27 07:03:55;;;;;;;21.65;10.90;;;11.90;84.60;;;;;;10791643;33;20024;-72
2023/03/27 07:10:00;;;;;;;10.32;6.22;;;11.70;83.80;;;;;;10790178;33;20059;-72
2023/03/27 07:16:05;;;;;;;10.25;5.80;;;11.70;84.40;;;;;;10786878;33;20043;-72
2023/03/27 07:22:07;;;;;;;6.05;4.35;;;12.00;84.70;;;;;;10789810;33;20055;-72
2023/03/27 07:28:22;;;;;;;6.35;4.10;;;12.00;84.50;;;;;;10789441;33;20343;-72
2023/03/27 07:34:42;;;;;;;6.37;4.82;;;12.00;84.80;;;;;;10789600;33;20050;-73
2023/03/27 07:40:48;;;;;;;6.78;3.80;;;12.10;84.70;;;;;;10789337;33;20024;-73
2023/03/27 07:46:53;;;;;;;6.85;4.32;;;12.20;84.90;;;;;;10786809;33;20063;-73
2023/03/27 07:52:56;;;;;;;10.02;5.68;;;12.20;84.90;;;;;;10791595;27;20025;-73
2023/03/27 07:58:59;;;;;;;6.95;4.03;;;12.60;85.50;;;;;;10789325;33;20433;-73
2023/03/27 08:05:04;;;;;;;9.50;6.07;;;12.70;84.30;;;;;;10788781;33;20039;-73
2023/03/27 08:11:07;;;;;;;18.90;16.58;;;12.40;84.30;;;;;;10788070;33;20079;-72
2023/03/27 08:17:10;;;;;;;13.15;10.77;;;12.20;83.80;;;;;;10787231;33;20020;-73
2023/03/27 08:23:13;;;;;;;16.73;10.63;;;12.00;84.40;;;;;;10785044;33;20028;-73
2023/03/27 08:29:18;;;;;;;11.65;8.05;;;11.90;84.30;;;;;;10788012;33;20051;-74
2023/03/27 08:35:21;;;;;;;10.10;7.22;;;11.90;84.70;;;;;;10774885;32;20410;-74
2023/03/27 08:41:26;;;;;;;8.73;6.20;;;12.50;85.40;;;;;;10784478;33;20399;-74
2023/03/27 08:47:41;;;;;;;6.80;4.87;;;13.00;84.80;;;;;;10787834;33;20020;-74
2023/03/27 08:53:50;;;;;;;7.20;5.28;;;13.20;84.60;;;;;;10786966;33;20421;-74
2023/03/27 08:59:58;;;;;;;11.40;9.25;;;13.30;85.10;;;;;;10784110;33;20066;-74
2023/03/27 09:06:37;;;;;;;21.73;18.30;;;13.40;85.40;;;;;;10775462;33;20098;-75
2023/03/27 09:12:47;;;;;;;14.87;11.40;;;13.60;85.90;;;;;;10790977;33;20024;-74
2023/03/27 09:18:56;;;;;;;12.13;7.72;;;13.50;85.50;;;;;;10787026;33;20055;-74
2023/03/27 09:25:07;;;;;;;13.02;8.27;;;13.70;85.90;;;;;;10755611;33;20055;-74
2023/03/27 09:31:23;;;;;;;10.85;7.12;;;13.90;85.70;;;;;;10756699;33;20045;-75
2023/03/27 09:37:27;;;;;;;7.32;4.90;;;14.10;85.60;;;;;;10742388;33;20051;-74
2023/03/27 09:43:40;;;;;;;6.53;4.37;;;14.20;85.30;;;;;;10756363;33;20032;-74
2023/03/27 09:49:48;;;;;;;15.30;12.93;;;14.40;85.50;;;;;;10787463;33;20451;-75
2023/03/27 09:56:06;;;;;;;10.48;6.75;;;14.50;85.70;;;;;;10792416;33;20059;-75
2023/03/27 10:02:21;;;;;;;17.00;12.63;;;14.40;85.80;;;;;;10792500;33;20086;-75
2023/03/27 10:08:24;;;;;;;10.10;6.75;;;14.50;85.80;;;;;;10788634;33;20075;-74
2023/03/27 10:14:33;;;;;;;12.55;9.13;;;14.60;85.90;;;;;;10779219;33;20024;-75
2023/03/27 10:20:36;;;;;;;9.65;6.40;;;14.80;85.80;;;;;;10791937;33;20032;-74
2023/03/27 10:26:39;;;;;;;12.52;9.57;;;15.00;85.90;;;;;;10788490;33;20052;-75
2023/03/27 10:32:46;;;;;;;13.95;11.18;;;15.30;85.70;;;;;;10841151;32;20358;-75
2023/03/27 10:38:59;;;;;;;16.53;14.23;;;15.40;85.50;;;;;;10791961;33;20051;-75
2023/03/27 10:45:02;;;;;;;13.52;10.80;;;15.50;84.80;;;;;;10776726;33;20055;-75
2023/03/27 10:51:32;;;;;;;9.88;8.32;;;15.60;84.70;;;;;;10790980;33;20047;-75
2023/03/27 10:57:34;;;;;;;;;;;15.70;84.80;;;;;;10791413;32;20024;-75
2023/03/27 11:04:02;;;;;;;7.93;6.55;;;15.80;85.10;;;;;;10784833;32;20241;-75
2023/03/27 11:10:17;;;;;;;14.80;13.03;;;16.00;85.30;;;;;;10755037;32;20066;-75
2023/03/27 11:16:26;;;;;;;15.80;13.60;;;16.20;84.60;;;;;;10759307;32;20024;-75
2023/03/27 11:22:44;;;;;;;11.60;9.82;;;16.30;84.60;;;;;;10790200;33;20417;-75
2023/03/27 11:28:56;;;;;;;9.70;7.85;;;16.40;83.20;;;;;;10771664;33;20416;-76
2023/03/27 11:35:14;;;;;;;12.23;10.82;;;16.80;82.60;;;;;;10761913;32;20032;-76
2023/03/27 11:41:16;;;;;;;10.75;7.97;;;17.20;82.70;;;;;;10775530;33;20032;-76
2023/03/27 11:47:38;;;;;;;9.23;7.10;;;17.70;81.90;;;;;;10789876;33;20035;-76
2023/03/27 11:53:52;;;;;;;9.98;8.07;;;17.80;79.90;;;;;;10788646;33;20025;-76
2023/03/27 12:00:25;;;;;;;7.87;5.75;;;18.10;80.20;;;;;;10789115;33;20043;-76
2023/03/27 12:06:59;;;;;;;16.10;10.07;;;18.30;79.80;;;;;;10778964;33;20047;-77
2023/03/27 12:13:27;;;;;;;12.02;8.75;;;18.60;79.10;;;;;;10738272;33;20059;-77
2023/03/27 12:19:46;;;;;;;8.57;6.12;;;18.60;78.80;;;;;;10751810;33;20067;-76
2023/03/27 12:26:17;;;;;;;8.25;5.85;;;18.50;78.80;;;;;;10753412;33;20037;-77
2023/03/27 12:32:39;;;;;;;14.18;7.68;;;18.50;78.10;;;;;;10753213;33;20047;-77
2023/03/27 12:38:43;;;;;;;12.73;9.63;;;18.70;77.30;;;;;;10751785;33;20427;-76
2023/03/27 12:45:13;;;;;;;14.52;11.20;;;18.70;77.80;;;;;;10747934;33;20032;-77
2023/03/27 12:51:18;;;;;;;9.07;6.55;;;18.60;77.70;;;;;;10755928;33;20025;-77
2023/03/27 12:57:24;;;;;;;13.20;7.63;;;18.70;77.80;;;;;;10757795;33;20432;-76
2023/03/27 13:03:50;;;;;;;13.62;10.20;;;18.90;77.30;;;;;;10744709;32;20044;-76
2023/03/27 13:10:00;;;;;;;12.52;10.88;;;19.00;76.20;;;;;;10742905;33;20082;-76
2023/03/27 13:16:24;;;;;;;12.23;9.82;;;19.00;75.60;;;;;;10756521;33;20075;-76
2023/03/27 13:22:47;;;;;;;8.77;7.28;;;19.00;75.60;;;;;;10756797;33;20365;-76
2023/03/27 13:28:51;;;;;;;14.45;11.07;;;19.20;76.10;;;;;;10756797;33;20151;-76
2023/03/27 13:35:22;;;;;;;16.75;14.02;;;19.20;75.30;;;;;;10759448;33;20055;-76
2023/03/27 13:41:42;;;;;;;18.62;11.18;;;18.70;75.30;;;;;;10754555;33;20025;-76
2023/03/27 13:48:06;;;;;;;13.45;10.82;;;18.20;75.60;;;;;;10756663;33;20048;-76
2023/03/27 13:54:23;;;;;;;13.38;8.88;;;17.90;76.70;;;;;;10754898;33;20021;-76
2023/03/27 14:00:49;;;;;;;15.40;12.32;;;17.70;77.20;;;;;;10753927;33;20047;-76
2023/03/27 14:07:00;;;;;;;17.10;15.15;;;17.80;77.90;;;;;;10756229;33;20021;-75
2023/03/27 14:13:25;;;;;;;25.45;19.20;;;18.20;76.60;;;;;;10755403;33;20025;-75
2023/03/27 14:19:41;;;;;;;15.77;11.75;;;18.60;75.70;;;;;;10742138;33;20050;-76
2023/03/27 14:26:10;;;;;;;21.25;14.70;;;18.60;75.30;;;;;;10754549;33;20326;-75
2023/03/27 14:32:16;;;;;;;19.67;15.15;;;18.40;75.40;;;;;;10754233;32;20043;-76
2023/03/27 14:38:23;;;;;;;24.58;20.12;;;18.60;75.10;;;;;;10751879;33;20428;-76
2023/03/27 14:44:30;;;;;;;17.70;15.55;;;18.30;76.30;;;;;;10754059;33;20051;-76
2023/03/27 14:57:24;;;;;;;16.37;14.35;;;18.20;77.20;;;;;;10851229;32;20027;-76
2023/03/27 15:03:34;;;;;;;12.85;9.73;;;17.90;77.40;;;;;;10852999;32;20039;-76
2023/03/27 15:10:02;;;;;;;12.30;9.52;;;17.70;77.80;;;;;;10866009;32;20050;-76
2023/03/27 15:16:09;;;;;;;11.15;6.03;;;17.90;77.60;;;;;;10864497;32;20059;-75
2023/03/27 15:22:21;;;;;;;10.30;7.53;;;18.40;76.70;;;;;;10866237;32;20069;-75
2023/03/27 15:28:45;;;;;;;11.55;8.40;;;18.80;75.80;;;;;;10767754;32;20017;-75
2023/03/27 15:35:04;;;;;;;16.58;12.13;;;19.10;76.10;;;;;;10728349;32;20067;-76
2023/03/27 15:41:08;;;;;;;13.85;9.90;;;19.80;76.60;;;;;;10750298;33;20037;-76
2023/03/27 15:47:25;;;;;;;13.05;9.30;;;20.40;76.50;;;;;;10753281;33;20044;-76
2023/03/27 15:53:36;;;;;;;14.57;11.65;;;21.30;75.30;;;;;;10563895;27;7360136;-76
2023/03/27 15:59:43;;;;;;;17.50;13.73;;;22.30;74.70;;;;;;10788704;33;20432;-76
2023/03/27 16:05:47;;;;;;;8.38;6.18;;;22.60;74.70;;;;;;10787624;33;20044;-75
2023/03/27 16:11:52;;;;;;;7.43;5.80;;;23.40;73.30;;;;;;10776215;33;20052;-76
2023/03/27 16:17:57;;;;;;;10.00;5.90;;;23.90;71.60;;;;;;10788544;33;20020;-76
2023/03/27 16:24:00;;;;;;;10.57;7.18;;;24.10;71.40;;;;;;10773783;33;20495;-76
2023/03/27 16:30:05;;;;;;;14.57;8.88;;;23.50;73.40;;;;;;10787096;33;20032;-76
2023/03/27 16:36:12;;;;;;;1.02;0.85;;;23.60;77.50;;;;;;10788623;33;20025;-76
2023/03/27 16:42:23;;;;;;;1.48;0.35;;;23.70;76.80;;;;;;10767394;33;20036;-76
2023/03/27 16:48:25;;;;;;;1.25;0.50;;;23.10;74.10;;;;;;10772196;33;20028;-76
2023/03/27 16:54:27;;;;;;;2.45;0.57;;;22.90;74.20;;;;;;10784734;33;20036;-76
2023/03/27 17:00:30;;;;;;;0.80;0.55;;;22.70;73.70;;;;;;10788372;33;20047;-76
2023/03/27 17:06:33;;;;;;;1.62;0.90;;;21.90;74.80;;;;;;10785815;33;20050;-78
2023/03/27 17:12:35;;;;;;;1.05;0.70;;;21.10;75.20;;;;;;10788190;33;20408;-78
2023/03/27 17:18:38;;;;;;;1.70;0.95;;;20.40;74.80;;;;;;10772833;33;20039;-78
2023/03/27 17:24:40;;;;;;;1.15;0.73;;;19.40;72.40;;;;;;10783443;33;20373;-78
2023/03/27 17:30:43;;;;;;;0.80;0.70;;;18.50;70.50;;;;;;10788214;33;20394;-78
2023/03/27 17:36:46;;;;;;;1.40;1.17;;;18.00;68.90;;;;;;10790229;33;20424;-78
2023/03/27 17:42:48;;;;;;;1.85;1.73;;;17.70;68.00;;;;;;10748016;33;20063;-77
2023/03/27 17:48:53;;;;;;;1.00;0.90;;;17.30;68.90;;;;;;10744030;33;20331;-77
2023/03/27 17:54:55;;;;;;;7.60;4.32;;;17.10;69.90;;;;;;10753516;33;20028;-77
2023/03/27 18:00:58;;;;;;;2.92;1.73;;;17.00;71.00;;;;;;10755340;33;20028;-77
2023/03/27 18:07:00;;;;;;;3.72;1.87;;;16.80;68.30;;;;;;10755607;33;20025;-78
2023/03/27 18:13:06;;;;;;;1.35;1.20;;;16.80;70.00;;;;;;10754043;33;20029;-78
2023/03/27 18:19:10;;;;;;;3.72;2.50;;;16.70;71.50;;;;;;10738669;33;20036;-77
2023/03/27 18:25:13;;;;;;;1.85;1.05;;;16.70;72.30;;;;;;10756024;33;20028;-77
2023/03/27 18:31:16;;;;;;;1.75;1.42;;;16.80;73.30;;;;;;10755242;33;20036;-78
2023/03/27 18:37:19;;;;;;;1.50;1.17;;;16.70;72.90;;;;;;10739108;33;20032;-77
2023/03/27 18:43:22;;;;;;;3.15;1.08;;;16.70;73.20;;;;;;10754742;33;20062;-77
2023/03/27 18:49:25;;;;;;;1.30;1.08;;;16.50;73.30;;;;;;10737772;32;20052;-77
2023/03/27 18:55:27;;;;;;;1.30;1.20;;;16.70;74.90;;;;;;10755269;33;20051;-77
2023/03/27 19:01:33;;;;;;;1.62;1.30;;;16.70;75.30;;;;;;10754943;33;20478;-78
2023/03/27 19:07:36;;;;;;;1.83;1.48;;;16.60;75.70;;;;;;10753298;33;20047;-78
2023/03/27 19:13:39;;;;;;;1.35;1.00;;;16.50;75.90;;;;;;10755484;33;20039;-77
2023/03/27 19:19:44;;;;;;;1.40;1.20;;;16.50;78.40;;;;;;10753095;33;20029;-77
2023/03/27 19:25:51;;;;;;;0.88;0.80;;;16.70;78.80;;;;;;10752803;33;20025;-75
2023/03/27 19:31:54;;;;;;;1.48;1.35;;;16.70;79.50;;;;;;10753874;32;20028;-78
2023/03/27 19:37:57;;;;;;;2.47;1.55;;;16.60;80.00;;;;;;10753831;33;20393;-77
2023/03/27 19:43:59;;;;;;;2.80;1.77;;;16.40;79.30;;;;;;10753427;33;20370;-78
2023/03/27 19:50:03;;;;;;;1.48;1.10;;;16.10;77.50;;;;;;10740184;33;20024;-78
2023/03/27 19:56:05;;;;;;;3.90;2.20;;;15.90;77.00;;;;;;10738210;32;20036;-77
2023/03/27 20:02:11;;;;;;;2.53;1.45;;;15.80;78.20;;;;;;10749904;33;20029;-78
2023/03/27 20:08:14;;;;;;;1.75;1.50;;;15.80;78.10;;;;;;10747666;33;20025;-77
2023/03/27 20:14:16;;;;;;;2.20;1.48;;;15.80;78.20;;;;;;10753175;33;20043;-75
2023/03/27 20:20:18;;;;;;;2.25;2.08;;;15.90;77.70;;;;;;10751959;33;20012;-75
2023/03/27 20:26:23;;;;;;;1.50;0.98;;;15.70;78.30;;;;;;10750975;33;20024;-75
2023/03/27 20:32:31;;;;;;;1.30;1.05;;;15.70;79.40;;;;;;10750211;33;20029;-76
2023/03/27 20:38:35;;;;;;;1.37;1.02;;;15.80;79.40;;;;;;10749096;33;20025;-75
2023/03/27 20:44:38;;;;;;;1.30;1.20;;;15.80;79.20;;;;;;10737598;33;20040;-78
2023/03/27 20:50:47;;;;;;;1.25;1.12;;;15.60;79.30;;;;;;10750905;33;20052;-78
2023/03/27 20:56:49;;;;;;;1.60;1.20;;;15.50;79.00;;;;;;10739512;33;20079;-78
2023/03/27 21:02:52;;;;;;;2.75;1.40;;;15.30;78.90;;;;;;10751120;33;20025;-78
2023/03/27 21:08:54;;;;;;;7.72;4.32;;;14.90;79.50;;;;;;10725277;33;20044;-78
2023/03/27 21:14:57;;;;;;;5.05;2.80;;;15.10;79.50;;;;;;10740971;33;20394;-76
2023/03/27 21:20:59;;;;;;;4.68;2.60;;;15.10;79.20;;;;;;10756319;33;20047;-78
2023/03/27 21:27:01;;;;;;;5.03;2.78;;;14.90;78.80;;;;;;10757560;33;20056;-78
2023/03/27 21:33:03;;;;;;;3.30;2.20;;;14.80;78.70;;;;;;10754345;33;20032;-75
2023/03/27 21:39:05;;;;;;;2.70;1.85;;;14.60;78.80;;;;;;10756706;33;20020;-75
2023/03/27 21:45:08;;;;;;;2.60;2.20;;;14.40;78.50;;;;;;10752140;33;20032;-75
2023/03/27 21:51:10;;;;;;;2.47;1.92;;;14.20;79.00;;;;;;10743607;33;20052;-75
2023/03/27 21:57:13;;;;;;;1.80;1.65;;;14.20;78.90;;;;;;10756616;33;20058;-75
2023/03/27 22:03:15;;;;;;;1.92;1.25;;;14.20;79.00;;;;;;10739241;33;20059;-75
2023/03/27 22:09:17;;;;;;;2.83;2.20;;;14.20;78.60;;;;;;10755984;33;20025;-77
2023/03/27 22:15:19;;;;;;;2.58;1.87;;;14.20;78.50;;;;;;10754612;33;20337;-75
2023/03/27 22:21:24;;;;;;;2.15;1.75;;;14.20;78.20;;;;;;10751934;33;20393;-75
2023/03/27 22:27:26;;;;;;;1.75;1.40;;;14.10;77.80;;;;;;10742883;33;20012;-75
2023/03/27 22:33:28;;;;;;;3.15;1.73;;;13.80;77.90;;;;;;10756244;33;20021;-75
2023/03/27 22:39:32;;;;;;;1.45;1.20;;;13.70;78.20;;;;;;10752345;33;20064;-75
2023/03/27 22:45:35;;;;;;;2.03;1.35;;;13.70;78.50;;;;;;10754710;33;20036;-76
2023/03/27 22:51:36;;;;;;;1.15;1.05;;;13.50;78.70;;;;;;10754379;33;20021;-75
2023/03/27 22:57:38;;;;;;;1.67;1.23;;;13.60;78.50;;;;;;10754417;33;20026;-75
2023/03/27 23:03:40;;;;;;;1.20;1.10;;;13.50;78.20;;;;;;10753319;33;20056;-75
2023/03/27 23:09:42;;;;;;;2.45;1.25;;;13.20;78.60;;;;;;10754470;33;20042;-75
2023/03/27 23:15:44;;;;;;;1.90;1.55;;;13.20;78.50;;;;;;10754396;33;20021;-75
2023/03/27 23:21:46;;;;;;;1.45;0.90;;;13.20;78.30;;;;;;10754220;33;20029;-75
2023/03/27 23:27:48;;;;;;;2.50;1.67;;;13.10;78.10;;;;;;10740450;33;20040;-75
2023/03/27 23:33:50;;;;;;;1.55;1.05;;;13.00;78.20;;;;;;10751152;33;20484;-76
2023/03/27 23:39:52;;;;;;;1.98;1.30;;;13.00;78.20;;;;;;10751072;33;20024;-75
2023/03/27 23:45:57;;;;;;;2.47;1.40;;;12.90;78.10;;;;;;10734942;33;20063;-75
2023/03/27 23:51:59;;;;;;;8.30;4.05;;;12.60;78.70;;;;;;10776056;27;20414;-75
2023/03/27 23:58:03;;;;;;;3.58;2.45;;;12.80;79.00;;;;;;10776698;33;20012;-75
